Time;durP1;ratioP1;P1;durP2;ratioP2;P2;SDS_P1;SDS_P2;PMS_P1;PMS_P2;Temp;Humidity;BMP_temperature;BMP_pressure;BME280_temperature;BME280_humidity;BME280_pressure;Samples;Min_cycle;Max_cycle;Signal;HPM_P1;HPM_P2
2021/05/14 00:02:09;;;;;;;6.10;4.85;;;;;;;8.72;63.66;98211.02;1711008;81;21044;-62
2021/05/14 00:04:36;;;;;;;6.12;5.10;;;;;;;8.62;63.56;98212.52;1718772;82;21095;-61
2021/05/14 00:07:03;;;;;;;9.23;4.58;;;;;;;8.55;63.76;98203.45;1718052;81;20988;-61
2021/05/14 00:09:29;;;;;;;;;;;;;;;8.49;63.88;98207.27;1719359;81;21362;-61
2021/05/14 00:11:56;;;;;;;8.27;5.70;;;;;;;8.47;64.30;98205.70;1709862;82;20163;-62
2021/05/14 00:14:24;;;;;;;14.93;4.78;;;;;;;8.42;64.16;98202.55;1718732;81;21840;-61
2021/05/14 00:16:50;;;;;;;9.28;5.72;;;;;;;8.38;64.51;98204.95;1717246;82;21031;-61
2021/05/14 00:21:00;;;;;;;9.78;6.15;;;;;;;8.39;64.76;98200.14;1833379;77;22844;-61
2021/05/14 00:23:27;;;;;;;8.67;5.67;;;;;;;8.33;64.56;98205.70;1803306;77;21025;-61
2021/05/14 00:25:54;;;;;;;8.18;5.95;;;;;;;8.29;64.74;98200.69;1801699;77;21746;-62
2021/05/14 00:28:22;;;;;;;7.10;6.30;;;;;;;8.27;64.69;98203.84;1804736;79;20961;-60
2021/05/14 00:30:49;;;;;;;7.90;6.22;;;;;;;8.19;64.85;98191.77;1799446;79;20992;-61
2021/05/14 00:33:16;;;;;;;8.35;5.12;;;;;;;8.20;65.01;98205.14;1737718;80;21023;-61
2021/05/14 00:35:42;;;;;;;5.43;4.40;;;;;;;8.17;65.04;98209.23;1742523;80;21048;-61
2021/05/14 00:39:05;;;;;;;5.80;3.83;;;;;;;8.20;65.54;98203.83;1823400;77;22796;-61
2021/05/14 00:41:32;;;;;;;;;;;;;;;8.21;65.83;98205.53;1803236;78;20996;-61
2021/05/14 00:44:19;;;;;;;4.58;4.17;;;;;;;8.32;65.87;98198.80;1793430;78;21040;-61
2021/05/14 00:46:46;;;;;;;4.65;4.17;;;;;;;8.39;65.69;98205.34;1794826;78;21152;-62
2021/05/14 00:49:15;;;;;;;6.60;4.65;;;;;;;8.45;65.78;98206.25;1799691;78;21093;-62
2021/05/14 00:51:41;;;;;;;6.00;4.53;;;;;;;8.50;65.71;98208.10;1797851;78;21612;-62
2021/05/14 00:54:58;;;;;;;7.47;4.78;;;;;;;8.54;65.77;98199.16;1775170;77;28014;-61
2021/05/14 00:57:26;;;;;;;5.92;4.92;;;;;;;8.55;65.48;98203.45;1780214;78;21021;-61
2021/05/14 00:59:53;;;;;;;6.72;5.17;;;;;;;8.63;65.77;98205.58;1776638;78;21044;-61
2021/05/14 01:02:20;;;;;;;5.87;5.05;;;;;;;8.69;66.05;98206.00;1785933;77;20946;-61
2021/05/14 01:04:48;;;;;;;7.78;5.65;;;;;;;8.74;66.25;98199.22;1787842;78;21111;-61
2021/05/14 01:07:14;;;;;;;10.53;5.60;;;;;;;8.77;66.39;98207.30;1785775;78;21138;-61
2021/05/14 01:09:43;;;;;;;7.00;5.83;;;;;;;8.78;66.56;98205.05;1785920;78;21615;-61
2021/05/14 01:12:11;;;;;;;8.33;6.37;;;;;;;8.78;66.58;98208.95;1783196;77;21031;-61
2021/05/14 01:14:38;;;;;;;11.50;6.67;;;;;;;8.79;66.73;98208.02;1785616;78;20976;-61
2021/05/14 01:17:05;;;;;;;10.38;6.22;;;;;;;8.76;66.82;98210.81;1782541;78;21037;-61
2021/05/14 01:19:33;;;;;;;8.70;7.40;;;;;;;8.73;66.95;98204.86;1779754;78;21049;-62
2021/05/14 01:22:00;;;;;;;10.30;7.53;;;;;;;8.69;67.04;98203.41;1788583;78;21914;-62
2021/05/14 01:24:27;;;;;;;9.13;6.80;;;;;;;8.67;67.15;98204.44;1788540;78;24491;-61
2021/05/14 01:26:53;;;;;;;8.98;6.55;;;;;;;8.65;67.16;98204.98;1785435;78;21056;-61
2021/05/14 01:29:22;;;;;;;10.97;6.33;;;;;;;8.61;67.39;98209.56;1788763;78;21096;-61
2021/05/14 01:31:50;;;;;;;8.65;7.17;;;;;;;8.55;67.49;98196.95;1781160;78;21017;-61
2021/05/14 01:34:20;;;;;;;7.33;6.33;;;;;;;8.66;67.66;98206.20;1782797;78;20973;-61
2021/05/14 01:36:46;;;;;;;10.08;6.75;;;;;;;8.71;68.12;98216.30;1788992;78;22199;-61
2021/05/14 01:39:23;;;;;;;10.08;6.78;;;;;;;8.77;68.32;98207.30;1785396;78;21011;-61
2021/05/14 01:41:47;;;;;;;7.33;6.45;;;;;;;8.79;68.36;98210.61;1784757;78;21121;-61
2021/05/14 01:44:17;;;;;;;9.45;7.25;;;;;;;8.81;68.47;98208.76;1786989;77;21112;-61
2021/05/14 01:46:44;;;;;;;9.45;7.58;;;;;;;8.82;68.68;98201.30;1784653;76;21645;-61
2021/05/14 01:49:11;;;;;;;11.40;8.20;;;;;;;8.81;68.80;98213.97;1728493;81;21150;-61
2021/05/14 01:51:38;;;;;;;10.43;8.40;;;;;;;8.80;68.92;98209.70;1728300;80;21151;-62
2021/05/14 01:54:05;;;;;;;11.35;9.23;;;;;;;8.81;69.07;98213.97;1759927;79;21565;-61
2021/05/14 01:56:32;;;;;;;;;;;;;;;8.80;69.46;98220.11;1732468;81;20974;-61
2021/05/14 01:58:59;;;;;;;10.77;9.60;;;;;;;8.78;69.44;98218.06;1723779;81;20183;-61
2021/05/14 02:01:26;;;;;;;11.05;9.73;;;;;;;8.74;69.41;98221.34;1746120;80;21786;-61
2021/05/14 02:03:53;;;;;;;12.00;10.43;;;;;;;8.70;69.59;98212.05;1740040;80;21055;-61
2021/05/14 02:06:20;;;;;;;14.53;11.78;;;;;;;8.67;69.80;98211.77;1745012;80;21143;-61
2021/05/14 02:08:47;;;;;;;12.18;9.60;;;;;;;8.62;69.88;98216.89;1750026;80;21587;-61
2021/05/14 02:11:14;;;;;;;10.08;8.93;;;;;;;8.56;69.91;98205.11;1748754;80;21045;-62
2021/05/14 02:13:42;;;;;;;8.63;7.72;;;;;;;8.53;70.12;98198.80;1748399;80;21223;-61
2021/05/14 02:16:10;;;;;;;7.10;6.37;;;;;;;8.47;70.24;98197.89;1755178;80;20982;-61
2021/05/14 02:18:38;;;;;;;5.97;5.00;;;;;;;8.42;70.29;98192.14;1743202;80;21031;-61
2021/05/14 02:21:07;;;;;;;7.78;4.62;;;;;;;8.38;70.37;98191.95;1745965;81;21000;-61
2021/05/14 02:23:34;;;;;;;5.83;4.67;;;;;;;8.34;70.43;98193.05;1747231;80;21061;-61
2021/05/14 02:26:01;;;;;;;5.00;4.12;;;;;;;8.34;70.65;98205.58;1749488;80;21108;-61
2021/05/14 02:28:28;;;;;;;10.08;5.47;;;;;;;8.30;70.43;98202.34;1738088;80;21013;-61
2021/05/14 02:30:54;;;;;;;6.77;4.43;;;;;;;8.27;70.44;98203.84;1752086;80;21010;-61
2021/05/14 02:33:22;;;;;;;5.55;4.53;;;;;;;8.23;70.63;98201.08;1747522;80;21036;-61
2021/05/14 02:35:48;;;;;;;6.47;4.00;;;;;;;8.21;70.71;98206.83;1741085;81;22116;-61
2021/05/14 02:38:15;;;;;;;8.83;4.67;;;;;;;8.19;70.78;98204.78;1756189;80;21036;-61
2021/05/14 02:40:43;;;;;;;6.80;4.62;;;;;;;8.18;70.85;98209.62;1748062;80;21059;-61
2021/05/14 02:43:10;;;;;;;7.03;4.95;;;;;;;8.16;70.89;98202.37;1761919;79;21029;-61
2021/05/14 02:45:37;;;;;;;7.05;4.50;;;;;;;8.14;70.95;98205.52;1744638;78;21013;-61
2021/05/14 02:48:05;;;;;;;5.08;4.00;;;;;;;8.11;71.07;98196.61;1757561;78;21017;-61
2021/05/14 02:50:33;;;;;;;4.25;3.70;;;;;;;8.12;71.13;98203.47;1761064;79;21746;-61
2021/05/14 02:52:59;;;;;;;4.85;3.77;;;;;;;8.12;71.21;98208.67;1754300;80;21586;-61
2021/05/14 02:55:26;;;;;;;5.37;3.43;;;;;;;8.13;71.31;98206.93;1758620;80;21063;-61
2021/05/14 02:57:53;;;;;;;5.25;3.70;;;;;;;8.14;71.37;98201.63;1723277;81;21035;-61
2021/05/14 03:00:22;;;;;;;4.60;3.40;;;;;;;8.17;71.49;98207.92;1751294;80;21628;-61
2021/05/14 03:02:49;;;;;;;4.40;3.45;;;;;;;8.20;71.61;98210.34;1746360;80;21121;-61
2021/05/14 03:05:17;;;;;;;4.43;3.63;;;;;;;8.24;71.64;98214.44;1752280;80;20985;-62
2021/05/14 03:07:44;;;;;;;;;;;;;;;8.29;71.67;98209.79;1754044;80;21014;-61
2021/05/14 03:10:11;;;;;;;;;;;;;;;8.38;71.85;98210.15;1744169;80;20920;-61
2021/05/14 03:12:38;;;;;;;3.15;2.85;;;;;;;8.67;72.13;98215.67;1745930;80;20228;-61
2021/05/14 03:15:07;;;;;;;7.47;3.03;;;;;;;8.97;71.61;98215.95;1740828;80;21154;-61
2021/05/14 03:17:35;;;;;;;4.30;3.17;;;;;;;8.97;71.38;98209.45;1748666;80;21020;-61
2021/05/14 03:20:02;;;;;;;6.40;2.62;;;;;;;8.94;71.41;98204.44;1744461;80;20997;-62
2021/05/14 03:22:29;;;;;;;5.97;3.60;;;;;;;8.89;71.41;98207.80;1748861;80;21009;-61
2021/05/14 03:24:56;;;;;;;3.98;3.08;;;;;;;8.86;71.48;98206.70;1753632;80;20975;-61
2021/05/14 03:27:23;;;;;;;8.50;3.50;;;;;;;8.84;71.55;98208.56;1749451;80;21084;-61
2021/05/14 03:29:50;;;;;;;4.60;3.30;;;;;;;8.83;71.62;98209.50;1742325;80;28163;-61
2021/05/14 03:32:17;;;;;;;7.75;3.37;;;;;;;8.81;71.58;98204.38;1748979;80;20952;-61
2021/05/14 03:34:44;;;;;;;5.62;3.75;;;;;;;8.84;71.72;98202.05;1750659;80;21075;-61
2021/05/14 03:37:10;;;;;;;5.10;3.13;;;;;;;8.95;71.88;98200.89;1743835;80;21028;-61
2021/05/14 03:39:44;;;;;;;4.62;3.20;;;;;;;9.24;72.01;98207.26;1750233;80;21008;-61
2021/05/14 03:42:23;;;;;;;6.37;3.08;;;;;;;9.74;72.15;98201.74;1746935;80;20986;-62
2021/05/14 03:44:52;;;;;;;6.53;3.10;;;;;;;10.70;72.49;98199.42;1746976;80;21049;-61
2021/05/14 03:47:24;;;;;;;16.00;2.75;;;;;;;12.27;72.35;98202.42;1735698;80;21010;-62
2021/05/14 03:49:51;;;;;;;17.55;4.12;;;;;;;13.78;71.29;98195.42;1746401;79;20915;-63
2021/05/14 03:52:21;;;;;;;;;;;;;;;15.18;70.38;98188.86;1724859;81;21029;-63
2021/05/14 03:54:48;;;;;;;11.38;3.15;;;;;;;16.66;69.88;98190.39;1759845;79;20180;-62
2021/05/14 03:57:15;;;;;;;7.58;2.45;;;;;;;18.04;69.23;98195.20;1760235;79;21534;-63
2021/05/14 03:59:42;;;;;;;5.28;1.80;;;;;;;19.17;68.27;98190.94;1767430;79;20976;-63
2021/05/14 04:02:11;;;;;;;4.12;1.92;;;;;;;19.87;67.32;98192.56;1763244;79;21013;-63
2021/05/14 04:04:38;;;;;;;2.98;1.80;;;;;;;20.30;67.02;98198.39;1763923;79;21942;-63
2021/05/14 04:07:05;;;;;;;5.62;1.60;;;;;;;20.75;65.68;98193.41;1761789;79;21095;-63
2021/05/14 04:09:35;;;;;;;3.70;1.70;;;;;;;21.01;65.29;98195.76;1758671;79;20938;-63
2021/05/14 04:14:29;;;;;;;4.87;2.05;;;;;;;21.06;64.89;98190.75;1760667;79;20989;-63
2021/05/14 04:14:42;;;;;;;3.25;2.00;;;;;;;21.29;64.73;98192.58;1747970;79;21025;-63
2021/05/14 04:17:09;;;;;;;5.25;2.00;;;;;;;21.46;63.95;98186.16;1756486;79;21069;-63
2021/05/14 04:19:36;;;;;;;3.00;2.00;;;;;;;21.57;63.65;98191.54;1761447;79;21063;-64
2021/05/14 04:22:04;;;;;;;;;;;;;;;21.71;62.52;98185.94;1760139;79;21051;-63
2021/05/14 04:24:31;;;;;;;3.22;2.15;;;;;;;22.35;62.40;98190.25;1759076;79;20550;-63
2021/05/14 04:26:58;;;;;;;;;;;;;;;22.76;62.05;98183.05;1767382;79;20970;-63
2021/05/14 04:29:26;;;;;;;2.15;1.95;;;;;;;22.91;60.34;98184.31;1763816;79;21043;-64
2021/05/14 04:31:53;;;;;;;5.58;2.45;;;;;;;23.09;60.81;98180.77;1765275;79;21005;-63
2021/05/14 04:34:21;;;;;;;3.83;2.20;;;;;;;23.41;60.13;98182.09;1761110;79;21031;-63
2021/05/14 04:36:48;;;;;;;5.62;2.20;;;;;;;23.71;59.75;98183.25;1733870;79;21093;-63
2021/05/14 04:39:14;;;;;;;;;;;;;;;23.90;58.81;98183.91;1765382;79;21071;-64
2021/05/14 04:41:42;;;;;;;4.47;1.98;;;;;;;24.06;57.83;98177.96;1758325;79;21101;-64
2021/05/14 04:44:09;;;;;;;3.90;2.00;;;;;;;24.15;57.88;98175.44;1763770;79;21047;-63
2021/05/14 04:46:36;;;;;;;4.10;2.02;;;;;;;24.09;57.39;98177.56;1765772;79;20978;-63
2021/05/14 04:49:03;;;;;;;4.22;2.20;;;;;;;23.89;56.29;98180.94;1758649;79;21204;-63
2021/05/14 04:51:30;;;;;;;4.20;2.20;;;;;;;23.89;56.25;98176.94;1762602;79;20999;-63
2021/05/14 04:53:59;;;;;;;3.60;1.72;;;;;;;23.79;55.55;98184.45;1757937;79;21789;-64
2021/05/14 04:56:26;;;;;;;2.77;1.85;;;;;;;23.83;55.09;98183.02;1760435;79;21047;-65
2021/05/14 04:58:52;;;;;;;;;;;;;;;23.71;54.32;98181.92;1754619;79;21009;-63
2021/05/14 05:01:19;;;;;;;4.87;1.37;;;;;;;23.55;52.84;98186.98;1760449;79;20764;-63
2021/05/14 05:03:58;;;;;;;2.80;1.50;;;;;;;23.65;53.37;98186.67;1760238;79;22477;-64
2021/05/14 05:06:25;;;;;;;3.27;1.32;;;;;;;23.38;52.07;98182.45;1724336;81;21432;-63
2021/05/14 05:08:53;;;;;;;1.95;1.20;;;;;;;23.04;51.46;98180.50;1753259;79;21040;-63
2021/05/14 05:11:20;;;;;;;5.40;1.10;;;;;;;22.76;51.20;98177.72;1733239;80;21014;-63
2021/05/14 05:13:47;;;;;;;9.28;1.95;;;;;;;23.14;51.43;98185.52;1759677;80;21677;-63
2021/05/14 05:16:13;;;;;;;2.15;1.00;;;;;;;23.07;51.17;98185.95;1758673;79;20983;-63
2021/05/14 05:18:40;;;;;;;0.82;0.55;;;;;;;23.20;50.50;98176.77;1761630;79;21620;-63
2021/05/14 05:21:10;;;;;;;1.27;0.50;;;;;;;23.14;49.53;98184.20;1760087;80;21033;-63
2021/05/14 05:23:38;;;;;;;1.17;0.70;;;;;;;22.58;48.47;98190.62;1755722;80;21070;-63
2021/05/14 05:26:04;;;;;;;2.27;0.70;;;;;;;22.40;48.73;98192.33;1755793;80;21035;-63
2021/05/14 05:28:32;;;;;;;2.95;0.90;;;;;;;22.44;48.61;98187.80;1758031;80;20998;-63
2021/05/14 05:30:59;;;;;;;2.00;0.70;;;;;;;22.39;48.09;98186.19;1762689;80;21045;-63
2021/05/14 05:33:26;;;;;;;1.35;0.75;;;;;;;22.32;47.95;98186.59;1730923;80;21015;-63
2021/05/14 05:35:54;;;;;;;1.30;0.70;;;;;;;22.34;47.65;98192.56;1746435;80;21336;-63
2021/05/14 05:38:24;;;;;;;4.37;0.93;;;;;;;22.36;46.91;98184.42;1748678;80;21089;-63
2021/05/14 05:40:53;;;;;;;1.17;0.65;;;;;;;22.16;46.57;98188.11;1736994;80;21059;-63
2021/05/14 05:43:22;;;;;;;3.58;0.90;;;;;;;22.07;46.77;98192.20;1710042;81;21082;-63
2021/05/14 05:45:49;;;;;;;0.98;0.70;;;;;;;21.95;46.20;98190.98;1743955;80;21323;-63
2021/05/14 05:48:16;;;;;;;3.33;1.00;;;;;;;21.82;46.18;98196.12;1715280;81;21696;-63
2021/05/14 05:50:43;;;;;;;;;;;;;;;21.48;45.43;98196.06;1753191;80;21047;-63
2021/05/14 05:53:11;;;;;;;2.27;1.10;;;;;;;20.70;45.06;98205.06;1751968;80;20188;-63
2021/05/14 05:55:39;;;;;;;4.05;1.30;;;;;;;20.25;45.94;98198.11;1736276;80;21577;-63
2021/05/14 05:58:11;;;;;;;2.08;1.40;;;;;;;19.93;45.53;98203.48;1706491;81;21674;-64
2021/05/14 06:00:38;;;;;;;2.37;1.02;;;;;;;20.08;45.88;98205.75;1733200;80;20994;-63
2021/05/14 06:03:09;;;;;;;1.17;0.95;;;;;;;20.58;45.96;98199.80;1728769;80;21006;-62
2021/05/14 06:05:40;;;;;;;2.35;0.90;;;;;;;20.97;45.58;98194.44;1732621;80;22225;-63
2021/05/14 06:08:08;;;;;;;1.98;0.80;;;;;;;21.01;45.45;98201.06;1701607;82;21051;-63
2021/05/14 06:10:36;;;;;;;6.42;0.90;;;;;;;20.48;44.63;98206.62;1725655;82;21013;-62
2021/05/14 06:13:03;;;;;;;2.65;0.75;;;;;;;19.38;44.48;98213.78;1728554;80;21106;-62
2021/05/14 06:15:30;;;;;;;2.10;0.88;;;;;;;18.39;44.83;98211.86;1725263;80;21080;-62
2021/05/14 06:17:57;;;;;;;1.65;0.68;;;;;;;18.25;45.42;98211.97;1730344;80;21092;-62
2021/05/14 06:20:26;;;;;;;0.90;0.60;;;;;;;18.44;45.09;98204.30;1729160;80;21688;-62
2021/05/14 06:22:53;;;;;;;1.95;0.70;;;;;;;18.19;44.61;98210.46;1733874;80;21138;-63
2021/05/14 06:25:20;;;;;;;1.00;0.78;;;;;;;18.20;45.20;98214.75;1734295;80;21086;-62
2021/05/14 06:27:50;;;;;;;2.60;1.27;;;;;;;18.30;45.31;98223.39;1729287;80;21076;-63
2021/05/14 06:30:19;;;;;;;2.77;0.85;;;;;;;18.54;45.51;98212.08;1728719;81;21004;-62
2021/05/14 06:32:46;;;;;;;1.17;0.80;;;;;;;18.88;45.50;98206.78;1727231;80;21035;-62
2021/05/14 06:35:14;;;;;;;2.22;0.78;;;;;;;19.11;45.47;98219.38;1727553;81;21611;-62
2021/05/14 06:37:40;;;;;;;2.45;0.60;;;;;;;19.36;45.61;98209.64;1727356;80;21571;-63
2021/05/14 06:43:16;;;;;;;3.22;0.60;;;;;;;19.20;43.32;98209.13;1825022;77;22531;-63
2021/05/14 06:45:48;;;;;;;1.77;0.60;;;;;;;18.25;44.26;98217.75;1798887;78;20965;-62
2021/05/14 06:48:15;;;;;;;6.37;0.95;;;;;;;18.23;44.96;98218.39;1771517;78;21691;-63
2021/05/14 06:50:43;;;;;;;0.60;0.40;;;;;;;17.81;44.79;98208.11;1805798;78;28262;-62
2021/05/14 06:53:10;;;;;;;1.17;0.50;;;;;;;17.66;45.26;98220.17;1798983;78;21102;-62
2021/05/14 06:55:37;;;;;;;0.53;0.42;;;;;;;17.91;45.42;98215.91;1797746;78;21008;-63
2021/05/14 06:58:04;;;;;;;;;;;;;;;17.52;45.00;98221.55;1803071;78;20996;-62
2021/05/14 07:00:56;;;;;;;1.12;0.55;;;;;;;17.05;45.42;98216.52;1800216;78;21255;-62
2021/05/14 07:03:24;;;;;;;1.17;0.35;;;;;;;16.85;45.58;98215.00;1717787;81;21763;-63
2021/05/14 07:05:51;;;;;;;;;;;;;;;16.17;45.76;98218.80;1720739;81;21026;-63
2021/05/14 07:08:17;;;;;;;2.37;0.60;;;;;;;15.73;46.29;98221.13;1715084;81;20172;-63
2021/05/14 07:10:44;;;;;;;1.95;0.60;;;;;;;15.62;47.29;98229.16;1720477;81;21053;-62
2021/05/14 07:13:11;;;;;;;1.42;0.70;;;;;;;15.99;47.04;98220.51;1724365;81;21173;-62
2021/05/14 07:15:37;;;;;;;2.72;0.90;;;;;;;16.86;47.69;98221.92;1717923;81;20964;-63
2021/05/14 07:18:05;;;;;;;1.05;0.45;;;;;;;17.65;46.96;98231.72;1721172;81;21034;-63
2021/05/14 07:20:32;;;;;;;1.75;0.80;;;;;;;17.73;46.76;98226.97;1726148;81;21666;-63
2021/05/14 07:22:59;;;;;;;2.62;0.90;;;;;;;17.77;46.79;98224.38;1691905;83;21037;-63
2021/05/14 07:25:26;;;;;;;0.90;0.50;;;;;;;17.74;46.64;98224.69;1703786;82;21236;-62
2021/05/14 07:27:55;;;;;;;0.80;0.80;;;;;;;17.55;46.82;98222.56;1708815;82;22330;-62
2021/05/14 07:30:22;;;;;;;0.50;0.50;;;;;;;17.23;46.52;98225.27;1719145;81;21663;-63
2021/05/14 07:32:48;;;;;;;;;;;;;;;16.86;46.48;98229.83;1735479;81;21069;-63
2021/05/14 07:35:15;;;;;;;2.47;0.80;;;;;;;16.62;47.04;98225.93;1730850;81;20163;-63
2021/05/14 07:37:42;;;;;;;1.15;0.60;;;;;;;16.52;46.89;98223.83;1723776;81;21656;-63
2021/05/14 07:40:10;;;;;;;;;;;;;;;15.81;46.69;98226.52;1732756;81;21562;-62
2021/05/14 07:42:37;;;;;;;0.78;0.47;;;;;;;15.67;47.62;98226.94;1731260;81;20259;-62
2021/05/14 07:45:07;;;;;;;2.05;0.72;;;;;;;15.88;47.70;98222.85;1693283;83;21010;-61
2021/05/14 07:47:34;;;;;;;0.95;0.70;;;;;;;16.16;47.62;98221.09;1698235;83;21285;-62
2021/05/14 07:50:01;;;;;;;0.68;0.45;;;;;;;16.13;47.27;98221.36;1678908;82;22589;-63
2021/05/14 07:52:28;;;;;;;1.20;0.57;;;;;;;16.13;47.99;98237.16;1703356;82;21059;-63
2021/05/14 07:54:57;;;;;;;0.72;0.60;;;;;;;15.60;47.77;98238.98;1706089;82;26792;-63
2021/05/14 07:57:23;;;;;;;1.98;0.80;;;;;;;15.12;48.51;98239.83;1703063;82;21031;-63
2021/05/14 07:59:50;;;;;;;0.98;0.65;;;;;;;14.74;48.37;98245.38;1705706;82;21035;-62
2021/05/14 08:02:17;;;;;;;1.07;0.40;;;;;;;15.08;49.25;98238.45;1708058;82;22197;-63
2021/05/14 08:04:45;;;;;;;1.10;0.62;;;;;;;15.86;49.44;98237.45;1705973;81;21047;-62
2021/05/14 08:07:12;;;;;;;0.75;0.50;;;;;;;16.53;49.11;98242.63;1706204;82;21625;-62
2021/05/14 08:09:43;;;;;;;2.47;0.70;;;;;;;16.88;48.47;98235.80;1704618;82;21042;-62
2021/05/14 08:12:11;;;;;;;3.25;0.80;;;;;;;16.94;48.12;98245.73;1723541;81;21647;-62
2021/05/14 08:14:38;;;;;;;1.25;0.68;;;;;;;16.52;47.90;98238.31;1704846;82;21690;-62
2021/05/14 08:17:05;;;;;;;1.75;0.72;;;;;;;16.20;48.51;98236.94;1705886;82;21110;-62
2021/05/14 08:19:32;;;;;;;0.80;0.50;;;;;;;16.15;49.09;98243.12;1705441;82;21039;-62
2021/05/14 08:21:59;;;;;;;1.20;0.70;;;;;;;16.55;49.19;98246.78;1707564;81;20998;-62
2021/05/14 08:24:26;;;;;;;2.20;0.50;;;;;;;16.24;48.72;98238.29;1706453;82;20995;-62
2021/05/14 08:26:54;;;;;;;1.40;0.60;;;;;;;15.77;48.76;98246.20;1722854;81;21378;-61
2021/05/14 08:29:21;;;;;;;0.53;0.42;;;;;;;15.32;48.82;98238.88;1707550;82;20960;-62
2021/05/14 08:31:48;;;;;;;1.05;0.60;;;;;;;15.16;49.27;98244.68;1704917;82;21027;-62
2021/05/14 08:34:15;;;;;;;1.87;0.60;;;;;;;15.11;49.73;98248.69;1708158;82;21026;-62
2021/05/14 08:36:43;;;;;;;0.62;0.40;;;;;;;15.11;49.72;98248.69;1722262;81;21030;-63
2021/05/14 08:39:10;;;;;;;1.35;0.47;;;;;;;15.18;49.70;98255.08;1719824;81;21111;-63
2021/05/14 08:41:38;;;;;;;0.90;0.60;;;;;;;15.26;50.30;98252.56;1726508;81;21058;-63
2021/05/14 08:44:06;;;;;;;0.80;0.65;;;;;;;15.44;50.02;98256.66;1727372;81;20982;-63
2021/05/14 08:46:36;;;;;;;0.93;0.50;;;;;;;15.58;49.43;98252.78;1725381;81;21012;-63
2021/05/14 08:49:04;;;;;;;0.75;0.50;;;;;;;15.22;50.03;98260.39;1722226;81;21162;-62
2021/05/14 08:51:32;;;;;;;1.10;0.45;;;;;;;14.98;49.96;98253.73;1725988;81;21129;-62
2021/05/14 08:54:05;;;;;;;0.98;0.30;;;;;;;15.03;50.20;98243.28;1722704;81;21097;-62
2021/05/14 08:56:32;;;;;;;1.02;0.50;;;;;;;15.29;50.26;98252.31;1697129;81;20987;-62
2021/05/14 08:59:00;;;;;;;2.00;0.53;;;;;;;15.15;49.89;98246.12;1686269;83;21102;-62
2021/05/14 09:01:29;;;;;;;2.25;0.60;;;;;;;15.21;50.42;98245.11;1689323;83;21126;-62
2021/05/14 09:04:10;;;;;;;0.35;0.35;;;;;;;15.96;51.20;98236.59;1709052;82;21431;-62
2021/05/14 09:06:40;;;;;;;1.77;0.50;;;;;;;16.77;50.56;98239.46;1682232;82;21604;-63
2021/05/14 09:09:10;;;;;;;0.93;0.50;;;;;;;17.28;49.11;98245.08;1702112;82;20979;-63
2021/05/14 09:11:47;;;;;;;2.65;0.53;;;;;;;17.37;49.82;98237.10;1707041;82;22380;-63
2021/05/14 09:14:45;;;;;;;0.98;0.70;;;;;;;17.06;49.08;98239.29;1707530;82;20992;-63
2021/05/14 09:17:18;;;;;;;0.72;0.50;;;;;;;16.50;49.32;98237.66;1703496;82;21073;-63
2021/05/14 09:19:47;;;;;;;0.70;0.60;;;;;;;16.72;49.66;98244.31;1723404;80;21006;-63
2021/05/14 09:22:21;;;;;;;1.05;0.50;;;;;;;17.02;49.95;98243.19;1722346;81;21600;-63
2021/05/14 09:24:52;;;;;;;5.20;0.50;;;;;;;17.66;50.49;98247.39;1716778;81;20940;-63
2021/05/14 09:27:35;;;;;;;0.65;0.40;;;;;;;18.34;50.18;98249.82;1725157;81;21004;-63
2021/05/14 09:30:07;;;;;;;3.65;0.50;;;;;;;18.82;49.92;98249.73;1707248;82;21258;-63
2021/05/14 09:32:35;;;;;;;0.65;0.53;;;;;;;19.03;49.14;98251.10;1715234;81;21215;-62
2021/05/14 09:35:06;;;;;;;2.37;0.70;;;;;;;19.08;48.65;98254.09;1726139;81;21050;-64
2021/05/14 09:37:51;;;;;;;1.42;0.60;;;;;;;18.77;48.73;98259.96;1713103;81;21623;-62
2021/05/14 09:40:22;;;;;;;2.15;0.70;;;;;;;18.56;47.83;98258.51;1709352;82;21054;-62
2021/05/14 09:42:59;;;;;;;13.03;1.17;;;;;;;17.78;46.93;98262.98;1704482;82;21114;-62
2021/05/14 09:45:28;;;;;;;4.03;0.62;;;;;;;17.04;47.79;98264.97;1722108;81;21126;-62
2021/05/14 09:48:25;;;;;;;1.85;0.65;;;;;;;16.65;48.18;98266.48;1717380;81;20924;-62
2021/05/14 09:50:50;;;;;;;0.60;0.40;;;;;;;16.61;48.74;98276.98;1720958;81;22091;-62
2021/05/14 09:53:25;;;;;;;2.30;0.65;;;;;;;16.64;48.68;98262.20;1718593;81;21119;-62
2021/05/14 09:55:59;;;;;;;1.07;0.53;;;;;;;16.94;49.12;98257.14;1727292;81;21209;-62
2021/05/14 09:58:25;;;;;;;2.08;0.50;;;;;;;17.31;48.39;98265.41;1731642;81;21039;-62
2021/05/14 10:00:53;;;;;;;2.12;0.57;;;;;;;17.59;48.86;98254.28;1725471;80;21002;-62
2021/05/14 10:03:23;;;;;;;1.10;0.50;;;;;;;18.18;48.71;98260.33;1726831;81;21035;-62
2021/05/14 10:05:52;;;;;;;0.78;0.42;;;;;;;18.06;47.24;98259.27;1697914;83;21200;-63
2021/05/14 10:08:20;;;;;;;7.78;0.95;;;;;;;17.93;47.88;98257.53;1734635;80;22101;-63
2021/05/14 10:10:48;;;;;;;0.57;0.45;;;;;;;18.06;47.40;98257.09;1730278;81;20983;-62
2021/05/14 10:13:17;;;;;;;0.60;0.33;;;;;;;18.14;46.64;98247.91;1727371;81;21579;-63
2021/05/14 10:15:44;;;;;;;2.33;0.47;;;;;;;17.95;46.98;98255.53;1702389;82;21966;-63
2021/05/14 10:18:21;;;;;;;0.50;0.30;;;;;;;18.02;46.91;98243.88;1732803;81;21046;-62
2021/05/14 10:20:51;;;;;;;0.82;0.60;;;;;;;18.19;47.36;98247.44;1732393;81;21713;-63
2021/05/14 10:23:18;;;;;;;1.87;0.50;;;;;;;18.66;47.35;98244.36;1726678;81;21038;-63
2021/05/14 10:25:49;;;;;;;5.47;0.70;;;;;;;19.15;47.83;98241.86;1704623;82;20968;-63
2021/05/14 10:28:26;;;;;;;3.55;0.62;;;;;;;19.66;47.26;98245.22;1707942;82;21035;-63
2021/05/14 10:31:08;;;;;;;4.45;0.88;;;;;;;19.82;46.85;98241.73;1705961;82;21016;-63
2021/05/14 10:33:44;;;;;;;1.92;0.50;;;;;;;19.96;46.78;98241.05;1730316;81;22135;-63
2021/05/14 10:36:22;;;;;;;1.90;0.60;;;;;;;19.31;45.25;98236.59;1728688;81;21113;-63
2021/05/14 10:39:11;;;;;;;2.30;0.57;;;;;;;18.84;45.00;98253.03;1696602;82;21036;-63
2021/05/14 10:42:09;;;;;;;0.72;0.45;;;;;;;18.37;45.75;98254.78;1736655;81;21008;-63
2021/05/14 10:44:53;;;;;;;0.72;0.40;;;;;;;18.05;45.49;98252.31;1733923;81;20968;-63
2021/05/14 10:47:30;;;;;;;1.90;0.65;;;;;;;17.83;45.81;98252.83;1732241;81;21251;-63
2021/05/14 10:50:05;;;;;;;2.87;0.90;;;;;;;17.68;46.18;98249.89;1725641;81;21016;-63
2021/05/14 10:52:33;;;;;;;0.70;0.70;;;;;;;17.39;45.73;98256.72;1736576;81;21023;-62
2021/05/14 10:55:01;;;;;;;4.10;0.90;;;;;;;16.95;46.36;98252.69;1712770;82;21131;-62
2021/05/14 10:57:42;;;;;;;2.95;0.80;;;;;;;16.81;46.83;98254.52;1729747;81;21034;-63
2021/05/14 11:00:30;;;;;;;3.12;0.80;;;;;;;16.96;46.80;98241.16;1733121;81;21113;-63
2021/05/14 11:03:16;;;;;;;0.95;0.80;;;;;;;16.90;47.06;98248.34;1731136;80;20930;-63
2021/05/14 11:05:48;;;;;;;1.72;1.00;;;;;;;17.15;47.29;98251.57;1725371;80;21023;-63
2021/05/14 11:08:37;;;;;;;6.20;0.98;;;;;;;17.35;47.28;98249.61;1719499;81;21146;-61
2021/05/14 11:11:14;;;;;;;2.25;1.00;;;;;;;17.30;47.30;98257.64;1727505;81;21605;-61
2021/05/14 11:13:47;;;;;;;1.80;0.70;;;;;;;17.21;47.25;98248.33;1720489;81;21841;-61
2021/05/14 11:16:47;;;;;;;2.20;0.98;;;;;;;17.43;47.35;98238.30;1725339;81;21059;-61
2021/05/14 11:19:24;;;;;;;1.72;0.60;;;;;;;17.15;47.05;98244.98;1720703;81;20976;-63
2021/05/14 11:22:02;;;;;;;;;;;;;;;17.13;47.44;98248.25;1726621;81;21158;-63
2021/05/14 11:24:34;;;;;;;1.75;0.80;;;;;;;17.54;47.97;98249.94;1728893;81;21022;-64
2021/05/14 11:27:13;;;;;;;1.87;0.68;;;;;;;17.84;47.61;98253.15;1679983;82;21605;-63
2021/05/14 11:29:52;;;;;;;2.80;0.90;;;;;;;18.23;47.85;98254.05;1707637;82;21073;-63
2021/05/14 11:32:38;;;;;;;3.25;0.85;;;;;;;18.04;47.08;98261.23;1720721;81;21114;-63
2021/05/14 11:35:19;;;;;;;1.37;0.75;;;;;;;17.87;47.54;98264.75;1723976;80;22291;-63
2021/05/14 11:37:56;;;;;;;1.50;0.98;;;;;;;17.92;47.34;98276.97;1724597;81;21024;-63
2021/05/14 11:40:35;;;;;;;1.20;0.70;;;;;;;17.52;46.91;98267.73;1725565;81;21416;-63
2021/05/14 11:43:11;;;;;;;1.32;0.80;;;;;;;17.27;47.31;98264.53;1725890;81;21013;-63
2021/05/14 11:45:38;;;;;;;1.50;0.80;;;;;;;17.21;47.49;98276.02;1723034;81;21021;-63
2021/05/14 11:48:18;;;;;;;3.30;0.90;;;;;;;17.14;48.37;98274.98;1721119;81;21613;-63
2021/05/14 11:50:49;;;;;;;1.60;0.70;;;;;;;16.71;48.15;98275.11;1729067;81;21062;-64
2021/05/14 11:53:18;;;;;;;3.95;1.10;;;;;;;16.80;49.01;98277.87;1722323;81;21279;-64
2021/05/14 11:55:48;;;;;;;1.82;1.02;;;;;;;16.96;48.82;98280.70;1717332;81;20999;-64
2021/05/14 11:58:39;;;;;;;3.95;0.70;;;;;;;16.84;48.48;98292.44;1721613;81;22508;-65